sensor_id;sensor_type;location;lat;lon;timestamp;P1;durP1;ratioP1;P2;durP2;ratioP2
40074;SDS011;26529;51.530;11.754;2022-10-16T00:01:45;2.92;;;0.50;;
40074;SDS011;26529;51.530;11.754;2022-10-16T00:04:11;2.15;;;0.60;;
40074;SDS011;26529;51.530;11.754;2022-10-16T00:06:37;3.05;;;0.60;;
40074;SDS011;26529;51.530;11.754;2022-10-16T00:09:03;1.50;;;0.80;;
40074;SDS011;26529;51.530;11.754;2022-10-16T00:11:31;1.77;;;0.70;;
40074;SDS011;26529;51.530;11.754;2022-10-16T00:13:59;2.30;;;0.60;;
40074;SDS011;26529;51.530;11.754;2022-10-16T00:16:27;1.40;;;0.55;;
40074;SDS011;26529;51.530;11.754;2022-10-16T00:18:53;3.33;;;0.70;;
40074;SDS011;26529;51.530;11.754;2022-10-16T00:21:20;1.85;;;0.90;;
40074;SDS011;26529;51.530;11.754;2022-10-16T00:24:07;10.20;;;1.10;;
40074;SDS011;26529;51.530;11.754;2022-10-16T00:26:34;2.08;;;0.77;;
40074;SDS011;26529;51.530;11.754;2022-10-16T00:29:01;2.95;;;0.60;;
40074;SDS011;26529;51.530;11.754;2022-10-16T00:31:27;2.08;;;0.90;;
40074;SDS011;26529;51.530;11.754;2022-10-16T00:33:53;2.72;;;0.50;;
40074;SDS011;26529;51.530;11.754;2022-10-16T00:36:20;2.58;;;0.55;;
40074;SDS011;26529;51.530;11.754;2022-10-16T00:38:49;1.98;;;0.50;;
40074;SDS011;26529;51.530;11.754;2022-10-16T00:41:26;1.52;;;0.60;;
40074;SDS011;26529;51.530;11.754;2022-10-16T00:43:56;2.72;;;0.70;;
40074;SDS011;26529;51.530;11.754;2022-10-16T00:46:27;1.58;;;0.50;;
40074;SDS011;26529;51.530;11.754;2022-10-16T00:49:04;2.83;;;0.75;;
40074;SDS011;26529;51.530;11.754;2022-10-16T00:51:52;1.40;;;0.40;;
40074;SDS011;26529;51.530;11.754;2022-10-16T00:54:22;2.28;;;0.85;;
40074;SDS011;26529;51.530;11.754;2022-10-16T00:56:51;2.50;;;0.73;;
40074;SDS011;26529;51.530;11.754;2022-10-16T00:59:20;0.82;;;0.25;;
40074;SDS011;26529;51.530;11.754;2022-10-16T01:01:51;2.50;;;0.35;;
40074;SDS011;26529;51.530;11.754;2022-10-16T01:04:17;1.77;;;0.73;;
40074;SDS011;26529;51.530;11.754;2022-10-16T01:12:16;1.92;;;0.50;;
40074;SDS011;26529;51.530;11.754;2022-10-16T01:14:48;1.77;;;0.60;;
40074;SDS011;26529;51.530;11.754;2022-10-16T01:17:38;1.77;;;0.63;;
40074;SDS011;26529;51.530;11.754;2022-10-16T01:20:28;0.95;;;0.43;;
40074;SDS011;26529;51.530;11.754;2022-10-16T01:28:13;2.35;;;0.60;;
40074;SDS011;26529;51.530;11.754;2022-10-16T01:30:43;0.80;;;0.22;;
40074;SDS011;26529;51.530;11.754;2022-10-16T01:33:30;2.15;;;0.93;;
40074;SDS011;26529;51.530;11.754;2022-10-16T01:36:24;1.55;;;0.65;;
40074;SDS011;26529;51.530;11.754;2022-10-16T01:38:54;0.85;;;0.32;;
40074;SDS011;26529;51.530;11.754;2022-10-16T01:41:40;3.05;;;0.60;;
40074;SDS011;26529;51.530;11.754;2022-10-16T01:44:25;0.90;;;0.38;;
40074;SDS011;26529;51.530;11.754;2022-10-16T01:46:53;1.33;;;0.50;;
40074;SDS011;26529;51.530;11.754;2022-10-16T01:49:20;1.83;;;0.47;;
40074;SDS011;26529;51.530;11.754;2022-10-16T01:51:50;1.52;;;0.38;;
40074;SDS011;26529;51.530;11.754;2022-10-16T01:54:20;2.40;;;0.35;;
40074;SDS011;26529;51.530;11.754;2022-10-16T01:56:50;2.20;;;0.45;;
40074;SDS011;26529;51.530;11.754;2022-10-16T01:59:18;1.15;;;0.50;;
40074;SDS011;26529;51.530;11.754;2022-10-16T02:01:50;1.27;;;0.52;;
40074;SDS011;26529;51.530;11.754;2022-10-16T02:07:07;1.05;;;0.40;;
40074;SDS011;26529;51.530;11.754;2022-10-16T02:09:33;1.70;;;0.52;;
40074;SDS011;26529;51.530;11.754;2022-10-16T02:12:01;0.50;;;0.30;;
40074;SDS011;26529;51.530;11.754;2022-10-16T02:14:31;1.85;;;0.25;;
40074;SDS011;26529;51.530;11.754;2022-10-16T02:16:57;1.58;;;0.82;;
40074;SDS011;26529;51.530;11.754;2022-10-16T02:19:23;0.68;;;0.30;;
40074;SDS011;26529;51.530;11.754;2022-10-16T02:29:17;1.05;;;0.32;;
40074;SDS011;26529;51.530;11.754;2022-10-16T02:31:49;1.27;;;0.30;;
40074;SDS011;26529;51.530;11.754;2022-10-16T02:34:19;2.47;;;0.57;;
40074;SDS011;26529;51.530;11.754;2022-10-16T02:36:47;1.50;;;0.50;;
40074;SDS011;26529;51.530;11.754;2022-10-16T02:39:15;1.00;;;0.22;;
40074;SDS011;26529;51.530;11.754;2022-10-16T02:41:42;1.48;;;0.30;;
40074;SDS011;26529;51.530;11.754;2022-10-16T02:44:07;0.70;;;0.20;;
40074;SDS011;26529;51.530;11.754;2022-10-16T02:46:33;2.03;;;0.70;;
40074;SDS011;26529;51.530;11.754;2022-10-16T02:48:59;1.80;;;0.63;;
40074;SDS011;26529;51.530;11.754;2022-10-16T02:51:24;0.80;;;0.30;;
40074;SDS011;26529;51.530;11.754;2022-10-16T02:53:50;1.55;;;0.40;;
40074;SDS011;26529;51.530;11.754;2022-10-16T02:56:16;1.55;;;0.30;;
40074;SDS011;26529;51.530;11.754;2022-10-16T02:58:41;0.57;;;0.20;;
40074;SDS011;26529;51.530;11.754;2022-10-16T03:01:07;1.65;;;0.30;;
40074;SDS011;26529;51.530;11.754;2022-10-16T03:03:33;1.65;;;0.40;;
40074;SDS011;26529;51.530;11.754;2022-10-16T03:05:58;1.05;;;0.30;;
40074;SDS011;26529;51.530;11.754;2022-10-16T03:08:24;0.65;;;0.20;;
40074;SDS011;26529;51.530;11.754;2022-10-16T03:10:50;0.70;;;0.40;;
40074;SDS011;26529;51.530;11.754;2022-10-16T03:13:16;1.15;;;0.30;;
40074;SDS011;26529;51.530;11.754;2022-10-16T03:15:43;1.25;;;0.30;;
40074;SDS011;26529;51.530;11.754;2022-10-16T03:18:08;1.25;;;0.30;;
40074;SDS011;26529;51.530;11.754;2022-10-16T03:20:34;1.65;;;0.28;;
40074;SDS011;26529;51.530;11.754;2022-10-16T03:23:00;1.63;;;0.40;;
40074;SDS011;26529;51.530;11.754;2022-10-16T03:25:25;2.17;;;0.30;;
40074;SDS011;26529;51.530;11.754;2022-10-16T03:27:51;1.75;;;0.40;;
40074;SDS011;26529;51.530;11.754;2022-10-16T03:30:17;1.55;;;0.47;;
40074;SDS011;26529;51.530;11.754;2022-10-16T03:32:43;1.27;;;0.43;;
40074;SDS011;26529;51.530;11.754;2022-10-16T03:35:10;0.63;;;0.22;;
40074;SDS011;26529;51.530;11.754;2022-10-16T03:37:36;1.77;;;0.68;;
40074;SDS011;26529;51.530;11.754;2022-10-16T03:40:02;0.70;;;0.30;;
40074;SDS011;26529;51.530;11.754;2022-10-16T03:42:29;0.93;;;0.40;;
40074;SDS011;26529;51.530;11.754;2022-10-16T03:44:54;1.85;;;0.50;;
40074;SDS011;26529;51.530;11.754;2022-10-16T03:47:20;0.52;;;0.30;;
40074;SDS011;26529;51.530;11.754;2022-10-16T03:49:47;0.82;;;0.30;;
40074;SDS011;26529;51.530;11.754;2022-10-16T03:52:13;2.17;;;0.35;;
40074;SDS011;26529;51.530;11.754;2022-10-16T03:54:39;0.95;;;0.40;;
40074;SDS011;26529;51.530;11.754;2022-10-16T03:57:04;1.13;;;0.20;;
40074;SDS011;26529;51.530;11.754;2022-10-16T03:59:30;0.63;;;0.30;;
40074;SDS011;26529;51.530;11.754;2022-10-16T04:01:56;0.68;;;0.30;;
40074;SDS011;26529;51.530;11.754;2022-10-16T04:04:21;1.73;;;0.40;;
40074;SDS011;26529;51.530;11.754;2022-10-16T04:06:47;0.90;;;0.30;;
40074;SDS011;26529;51.530;11.754;2022-10-16T04:09:12;0.82;;;0.30;;
40074;SDS011;26529;51.530;11.754;2022-10-16T04:11:38;0.93;;;0.20;;
40074;SDS011;26529;51.530;11.754;2022-10-16T04:14:04;0.75;;;0.40;;
40074;SDS011;26529;51.530;11.754;2022-10-16T04:16:30;0.80;;;0.20;;
40074;SDS011;26529;51.530;11.754;2022-10-16T04:18:55;1.17;;;0.30;;
40074;SDS011;26529;51.530;11.754;2022-10-16T04:21:21;1.55;;;0.80;;
40074;SDS011;26529;51.530;11.754;2022-10-16T04:23:47;0.80;;;0.25;;
40074;SDS011;26529;51.530;11.754;2022-10-16T04:26:13;1.25;;;0.25;;
40074;SDS011;26529;51.530;11.754;2022-10-16T04:28:38;1.73;;;0.75;;
40074;SDS011;26529;51.530;11.754;2022-10-16T04:31:04;1.13;;;0.40;;
40074;SDS011;26529;51.530;11.754;2022-10-16T04:33:31;1.02;;;0.30;;
40074;SDS011;26529;51.530;11.754;2022-10-16T04:35:57;2.15;;;0.30;;
40074;SDS011;26529;51.530;11.754;2022-10-16T04:38:24;2.60;;;0.57;;
40074;SDS011;26529;51.530;11.754;2022-10-16T04:40:50;0.82;;;0.30;;
40074;SDS011;26529;51.530;11.754;2022-10-16T04:43:15;5.13;;;0.65;;
40074;SDS011;26529;51.530;11.754;2022-10-16T04:45:41;1.52;;;0.38;;
40074;SDS011;26529;51.530;11.754;2022-10-16T04:48:06;0.55;;;0.28;;
40074;SDS011;26529;51.530;11.754;2022-10-16T04:50:32;0.77;;;0.40;;
40074;SDS011;26529;51.530;11.754;2022-10-16T04:53:04;2.03;;;0.40;;
40074;SDS011;26529;51.530;11.754;2022-10-16T04:55:31;0.82;;;0.30;;
40074;SDS011;26529;51.530;11.754;2022-10-16T04:57:56;1.38;;;0.35;;
40074;SDS011;26529;51.530;11.754;2022-10-16T05:00:22;1.67;;;0.40;;
40074;SDS011;26529;51.530;11.754;2022-10-16T05:02:49;1.33;;;0.35;;
40074;SDS011;26529;51.530;11.754;2022-10-16T05:05:15;2.38;;;0.63;;
40074;SDS011;26529;51.530;11.754;2022-10-16T05:07:41;3.40;;;0.50;;
40074;SDS011;26529;51.530;11.754;2022-10-16T05:10:07;0.55;;;0.10;;
40074;SDS011;26529;51.530;11.754;2022-10-16T05:12:32;0.85;;;0.40;;
40074;SDS011;26529;51.530;11.754;2022-10-16T05:14:59;0.75;;;0.30;;
40074;SDS011;26529;51.530;11.754;2022-10-16T05:17:25;1.08;;;0.35;;
40074;SDS011;26529;51.530;11.754;2022-10-16T05:19:51;1.85;;;0.68;;
40074;SDS011;26529;51.530;11.754;2022-10-16T05:22:16;1.48;;;0.47;;
40074;SDS011;26529;51.530;11.754;2022-10-16T05:24:42;2.95;;;0.70;;
40074;SDS011;26529;51.530;11.754;2022-10-16T05:27:08;2.50;;;0.50;;
40074;SDS011;26529;51.530;11.754;2022-10-16T05:29:33;2.35;;;0.40;;
40074;SDS011;26529;51.530;11.754;2022-10-16T05:32:00;0.77;;;0.30;;
40074;SDS011;26529;51.530;11.754;2022-10-16T05:34:26;5.05;;;0.63;;
40074;SDS011;26529;51.530;11.754;2022-10-16T05:36:51;5.03;;;0.68;;
40074;SDS011;26529;51.530;11.754;2022-10-16T05:39:17;2.20;;;0.57;;
40074;SDS011;26529;51.530;11.754;2022-10-16T05:41:43;1.48;;;0.50;;
40074;SDS011;26529;51.530;11.754;2022-10-16T05:44:08;3.90;;;0.55;;
40074;SDS011;26529;51.530;11.754;2022-10-16T05:46:34;5.30;;;0.77;;
40074;SDS011;26529;51.530;11.754;2022-10-16T05:49:00;3.92;;;1.05;;
40074;SDS011;26529;51.530;11.754;2022-10-16T05:51:25;6.30;;;0.95;;
40074;SDS011;26529;51.530;11.754;2022-10-16T05:53:51;6.13;;;0.95;;
40074;SDS011;26529;51.530;11.754;2022-10-16T05:56:17;7.85;;;1.45;;
40074;SDS011;26529;51.530;11.754;2022-10-16T05:58:43;5.43;;;1.10;;
40074;SDS011;26529;51.530;11.754;2022-10-16T06:03:37;4.95;;;1.17;;
40074;SDS011;26529;51.530;11.754;2022-10-16T06:06:12;7.60;;;1.08;;
40074;SDS011;26529;51.530;11.754;2022-10-16T06:08:39;6.85;;;1.10;;
40074;SDS011;26529;51.530;11.754;2022-10-16T06:11:07;8.50;;;1.27;;
40074;SDS011;26529;51.530;11.754;2022-10-16T06:13:35;9.30;;;1.52;;
40074;SDS011;26529;51.530;11.754;2022-10-16T06:16:01;20.65;;;1.58;;
40074;SDS011;26529;51.530;11.754;2022-10-16T06:18:28;15.00;;;1.70;;
40074;SDS011;26529;51.530;11.754;2022-10-16T06:20:55;15.23;;;1.60;;
40074;SDS011;26529;51.530;11.754;2022-10-16T06:23:21;14.63;;;1.95;;
40074;SDS011;26529;51.530;11.754;2022-10-16T06:25:47;19.48;;;2.38;;
40074;SDS011;26529;51.530;11.754;2022-10-16T06:28:14;16.70;;;1.75;;
40074;SDS011;26529;51.530;11.754;2022-10-16T06:30:40;13.75;;;1.50;;
40074;SDS011;26529;51.530;11.754;2022-10-16T06:33:08;15.52;;;2.13;;
40074;SDS011;26529;51.530;11.754;2022-10-16T06:35:33;12.48;;;1.95;;
40074;SDS011;26529;51.530;11.754;2022-10-16T06:37:59;17.80;;;2.72;;
40074;SDS011;26529;51.530;11.754;2022-10-16T06:40:24;15.27;;;1.85;;
40074;SDS011;26529;51.530;11.754;2022-10-16T06:42:50;17.70;;;3.10;;
40074;SDS011;26529;51.530;11.754;2022-10-16T06:45:17;15.82;;;2.05;;
40074;SDS011;26529;51.530;11.754;2022-10-16T06:47:42;13.88;;;2.35;;
40074;SDS011;26529;51.530;11.754;2022-10-16T06:50:08;13.07;;;2.13;;
40074;SDS011;26529;51.530;11.754;2022-10-16T06:52:34;16.13;;;2.85;;
40074;SDS011;26529;51.530;11.754;2022-10-16T06:54:59;16.35;;;2.47;;
40074;SDS011;26529;51.530;11.754;2022-10-16T06:57:25;9.52;;;1.83;;
40074;SDS011;26529;51.530;11.754;2022-10-16T06:59:51;13.77;;;2.25;;
40074;SDS011;26529;51.530;11.754;2022-10-16T07:02:16;9.23;;;1.98;;
40074;SDS011;26529;51.530;11.754;2022-10-16T07:04:42;6.65;;;1.42;;
40074;SDS011;26529;51.530;11.754;2022-10-16T07:07:07;10.13;;;1.95;;
40074;SDS011;26529;51.530;11.754;2022-10-16T07:09:33;9.63;;;1.52;;
40074;SDS011;26529;51.530;11.754;2022-10-16T07:11:58;10.57;;;1.35;;
40074;SDS011;26529;51.530;11.754;2022-10-16T07:14:24;10.55;;;2.58;;
40074;SDS011;26529;51.530;11.754;2022-10-16T07:16:50;11.30;;;1.63;;
40074;SDS011;26529;51.530;11.754;2022-10-16T07:19:15;13.30;;;2.25;;
40074;SDS011;26529;51.530;11.754;2022-10-16T07:21:42;8.88;;;1.60;;
40074;SDS011;26529;51.530;11.754;2022-10-16T07:24:13;12.48;;;1.95;;
40074;SDS011;26529;51.530;11.754;2022-10-16T07:26:41;14.38;;;1.50;;
40074;SDS011;26529;51.530;11.754;2022-10-16T07:29:18;9.82;;;1.63;;
40074;SDS011;26529;51.530;11.754;2022-10-16T07:31:46;10.60;;;2.10;;
40074;SDS011;26529;51.530;11.754;2022-10-16T07:34:12;8.55;;;1.63;;
40074;SDS011;26529;51.530;11.754;2022-10-16T07:36:39;7.03;;;1.25;;
40074;SDS011;26529;51.530;11.754;2022-10-16T07:39:05;5.95;;;1.40;;
40074;SDS011;26529;51.530;11.754;2022-10-16T07:41:31;10.50;;;1.80;;
40074;SDS011;26529;51.530;11.754;2022-10-16T07:43:58;7.80;;;1.60;;
40074;SDS011;26529;51.530;11.754;2022-10-16T07:46:27;7.60;;;1.35;;
40074;SDS011;26529;51.530;11.754;2022-10-16T07:48:53;11.65;;;2.10;;
40074;SDS011;26529;51.530;11.754;2022-10-16T07:51:19;9.32;;;1.30;;
40074;SDS011;26529;51.530;11.754;2022-10-16T07:53:46;5.93;;;1.17;;
40074;SDS011;26529;51.530;11.754;2022-10-16T07:56:12;8.65;;;1.80;;
40074;SDS011;26529;51.530;11.754;2022-10-16T07:58:39;7.18;;;1.15;;
40074;SDS011;26529;51.530;11.754;2022-10-16T08:01:05;5.18;;;1.50;;
40074;SDS011;26529;51.530;11.754;2022-10-16T08:03:33;7.43;;;1.58;;
40074;SDS011;26529;51.530;11.754;2022-10-16T08:05:59;7.05;;;1.73;;
40074;SDS011;26529;51.530;11.754;2022-10-16T08:08:25;8.23;;;1.58;;
40074;SDS011;26529;51.530;11.754;2022-10-16T08:10:51;7.28;;;1.38;;
40074;SDS011;26529;51.530;11.754;2022-10-16T08:13:17;11.00;;;1.60;;
40074;SDS011;26529;51.530;11.754;2022-10-16T08:15:43;6.40;;;1.40;;
40074;SDS011;26529;51.530;11.754;2022-10-16T08:18:10;7.50;;;1.15;;
40074;SDS011;26529;51.530;11.754;2022-10-16T08:20:36;6.57;;;1.60;;
40074;SDS011;26529;51.530;11.754;2022-10-16T08:23:02;7.97;;;1.95;;
40074;SDS011;26529;51.530;11.754;2022-10-16T08:25:28;11.35;;;1.58;;
40074;SDS011;26529;51.530;11.754;2022-10-16T08:27:54;7.18;;;1.60;;
40074;SDS011;26529;51.530;11.754;2022-10-16T08:30:20;6.40;;;1.55;;
40074;SDS011;26529;51.530;11.754;2022-10-16T08:32:46;11.63;;;1.58;;
40074;SDS011;26529;51.530;11.754;2022-10-16T08:35:12;5.90;;;1.25;;
40074;SDS011;26529;51.530;11.754;2022-10-16T08:37:39;4.60;;;1.05;;
40074;SDS011;26529;51.530;11.754;2022-10-16T08:40:05;7.53;;;1.02;;
40074;SDS011;26529;51.530;11.754;2022-10-16T08:42:46;4.95;;;1.25;;
40074;SDS011;26529;51.530;11.754;2022-10-16T08:50:41;12.40;;;1.63;;
40074;SDS011;26529;51.530;11.754;2022-10-16T08:53:09;8.43;;;1.40;;
40074;SDS011;26529;51.530;11.754;2022-10-16T08:55:41;5.72;;;1.20;;
40074;SDS011;26529;51.530;11.754;2022-10-16T08:58:11;4.60;;;1.50;;
40074;SDS011;26529;51.530;11.754;2022-10-16T09:00:42;4.63;;;1.10;;
40074;SDS011;26529;51.530;11.754;2022-10-16T09:08:52;11.60;;;1.48;;
40074;SDS011;26529;51.530;11.754;2022-10-16T09:13:57;8.05;;;1.20;;
40074;SDS011;26529;51.530;11.754;2022-10-16T09:16:39;5.40;;;1.40;;
40074;SDS011;26529;51.530;11.754;2022-10-16T09:19:22;6.85;;;1.10;;
40074;SDS011;26529;51.530;11.754;2022-10-16T09:21:54;5.90;;;1.17;;
40074;SDS011;26529;51.530;11.754;2022-10-16T09:24:21;5.65;;;1.00;;
40074;SDS011;26529;51.530;11.754;2022-10-16T09:26:50;4.18;;;1.13;;
40074;SDS011;26529;51.530;11.754;2022-10-16T09:29:17;6.30;;;1.73;;
40074;SDS011;26529;51.530;11.754;2022-10-16T09:31:45;3.35;;;0.70;;
40074;SDS011;26529;51.530;11.754;2022-10-16T09:34:33;4.25;;;1.52;;
40074;SDS011;26529;51.530;11.754;2022-10-16T09:37:05;5.65;;;1.08;;
40074;SDS011;26529;51.530;11.754;2022-10-16T09:39:45;2.47;;;0.70;;
40074;SDS011;26529;51.530;11.754;2022-10-16T09:42:16;3.90;;;0.73;;
40074;SDS011;26529;51.530;11.754;2022-10-16T09:44:48;4.07;;;1.40;;
40074;SDS011;26529;51.530;11.754;2022-10-16T09:47:17;7.30;;;1.10;;
40074;SDS011;26529;51.530;11.754;2022-10-16T09:52:26;5.47;;;0.98;;
40074;SDS011;26529;51.530;11.754;2022-10-16T09:54:53;6.50;;;0.98;;
40074;SDS011;26529;51.530;11.754;2022-10-16T09:57:21;5.03;;;0.88;;
40074;SDS011;26529;51.530;11.754;2022-10-16T09:59:54;6.10;;;0.93;;
40074;SDS011;26529;51.530;11.754;2022-10-16T10:02:36;5.30;;;1.50;;
40074;SDS011;26529;51.530;11.754;2022-10-16T10:05:04;2.95;;;1.08;;
40074;SDS011;26529;51.530;11.754;2022-10-16T10:07:42;3.95;;;1.20;;
40074;SDS011;26529;51.530;11.754;2022-10-16T10:10:21;8.85;;;1.60;;
40074;SDS011;26529;51.530;11.754;2022-10-16T10:12:48;4.78;;;0.90;;
40074;SDS011;26529;51.530;11.754;2022-10-16T10:15:14;7.70;;;1.00;;
40074;SDS011;26529;51.530;11.754;2022-10-16T10:17:53;6.32;;;1.52;;
40074;SDS011;26529;51.530;11.754;2022-10-16T10:20:35;5.15;;;0.93;;
40074;SDS011;26529;51.530;11.754;2022-10-16T10:23:20;3.10;;;0.90;;
40074;SDS011;26529;51.530;11.754;2022-10-16T10:25:53;4.95;;;1.20;;
40074;SDS011;26529;51.530;11.754;2022-10-16T10:31:15;4.90;;;1.10;;
40074;SDS011;26529;51.530;11.754;2022-10-16T10:33:50;3.13;;;0.80;;
40074;SDS011;26529;51.530;11.754;2022-10-16T10:38:56;2.65;;;0.80;;
40074;SDS011;26529;51.530;11.754;2022-10-16T10:46:26;3.03;;;0.80;;
40074;SDS011;26529;51.530;11.754;2022-10-16T11:06:12;2.67;;;0.60;;
40074;SDS011;26529;51.530;11.754;2022-10-16T11:08:45;3.40;;;0.70;;
40074;SDS011;26529;51.530;11.754;2022-10-16T11:11:17;4.43;;;0.85;;
40074;SDS011;26529;51.530;11.754;2022-10-16T11:13:55;2.85;;;0.60;;
40074;SDS011;26529;51.530;11.754;2022-10-16T11:16:42;2.67;;;0.68;;
40074;SDS011;26529;51.530;11.754;2022-10-16T11:22:03;4.97;;;1.02;;
40074;SDS011;26529;51.530;11.754;2022-10-16T11:24:37;4.00;;;0.70;;
40074;SDS011;26529;51.530;11.754;2022-10-16T11:27:14;3.72;;;1.00;;
40074;SDS011;26529;51.530;11.754;2022-10-16T11:29:49;4.30;;;0.82;;
40074;SDS011;26529;51.530;11.754;2022-10-16T11:32:47;2.83;;;0.73;;
40074;SDS011;26529;51.530;11.754;2022-10-16T11:35:28;4.78;;;0.73;;
40074;SDS011;26529;51.530;11.754;2022-10-16T11:38:03;1.55;;;0.50;;
40074;SDS011;26529;51.530;11.754;2022-10-16T11:40:39;3.13;;;0.85;;
40074;SDS011;26529;51.530;11.754;2022-10-16T11:45:47;4.43;;;0.82;;
40074;SDS011;26529;51.530;11.754;2022-10-16T11:48:24;2.05;;;0.68;;
40074;SDS011;26529;51.530;11.754;2022-10-16T11:53:44;3.75;;;0.90;;
40074;SDS011;26529;51.530;11.754;2022-10-16T11:56:17;3.07;;;0.50;;
40074;SDS011;26529;51.530;11.754;2022-10-16T11:58:59;2.83;;;0.70;;
40074;SDS011;26529;51.530;11.754;2022-10-16T12:06:50;2.07;;;0.90;;
40074;SDS011;26529;51.530;11.754;2022-10-16T12:09:26;1.40;;;0.45;;
40074;SDS011;26529;51.530;11.754;2022-10-16T12:11:54;1.55;;;0.50;;
40074;SDS011;26529;51.530;11.754;2022-10-16T12:16:53;3.13;;;0.70;;
40074;SDS011;26529;51.530;11.754;2022-10-16T12:19:25;2.42;;;0.65;;
40074;SDS011;26529;51.530;11.754;2022-10-16T12:21:54;2.97;;;1.27;;
40074;SDS011;26529;51.530;11.754;2022-10-16T12:24:34;4.10;;;0.60;;
40074;SDS011;26529;51.530;11.754;2022-10-16T12:27:00;3.95;;;0.98;;
40074;SDS011;26529;51.530;11.754;2022-10-16T12:31:57;2.17;;;0.40;;
40074;SDS011;26529;51.530;11.754;2022-10-16T12:34:31;2.78;;;0.77;;
40074;SDS011;26529;51.530;11.754;2022-10-16T12:37:10;4.60;;;1.00;;
40074;SDS011;26529;51.530;11.754;2022-10-16T12:39:39;3.90;;;0.80;;
40074;SDS011;26529;51.530;11.754;2022-10-16T12:42:20;5.22;;;0.98;;
40074;SDS011;26529;51.530;11.754;2022-10-16T12:44:46;3.78;;;0.70;;
40074;SDS011;26529;51.530;11.754;2022-10-16T12:47:21;3.00;;;0.60;;
40074;SDS011;26529;51.530;11.754;2022-10-16T12:49:53;1.92;;;0.63;;
40074;SDS011;26529;51.530;11.754;2022-10-16T12:52:24;3.78;;;0.80;;
40074;SDS011;26529;51.530;11.754;2022-10-16T12:54:51;5.70;;;0.65;;
40074;SDS011;26529;51.530;11.754;2022-10-16T13:13:59;7.20;;;1.00;;
40074;SDS011;26529;51.530;11.754;2022-10-16T13:19:11;5.28;;;0.70;;
40074;SDS011;26529;51.530;11.754;2022-10-16T13:24:43;10.45;;;1.20;;
40074;SDS011;26529;51.530;11.754;2022-10-16T13:27:40;7.82;;;0.73;;
40074;SDS011;26529;51.530;11.754;2022-10-16T13:33:03;13.10;;;1.10;;
40074;SDS011;26529;51.530;11.754;2022-10-16T13:35:33;10.05;;;1.55;;
40074;SDS011;26529;51.530;11.754;2022-10-16T13:38:11;8.38;;;1.42;;
40074;SDS011;26529;51.530;11.754;2022-10-16T13:43:27;6.95;;;1.15;;
40074;SDS011;26529;51.530;11.754;2022-10-16T13:46:01;5.90;;;1.08;;
40074;SDS011;26529;51.530;11.754;2022-10-16T13:48:39;7.22;;;0.80;;
40074;SDS011;26529;51.530;11.754;2022-10-16T13:51:15;6.50;;;0.93;;
40074;SDS011;26529;51.530;11.754;2022-10-16T13:53:42;8.55;;;1.02;;
40074;SDS011;26529;51.530;11.754;2022-10-16T13:56:13;4.25;;;0.63;;
40074;SDS011;26529;51.530;11.754;2022-10-16T13:58:39;3.33;;;0.35;;
40074;SDS011;26529;51.530;11.754;2022-10-16T14:01:14;6.05;;;0.63;;
40074;SDS011;26529;51.530;11.754;2022-10-16T14:03:43;1.10;;;0.60;;
40074;SDS011;26529;51.530;11.754;2022-10-16T14:06:14;1.70;;;0.50;;
40074;SDS011;26529;51.530;11.754;2022-10-16T14:08:46;1.65;;;0.82;;
40074;SDS011;26529;51.530;11.754;2022-10-16T14:11:20;1.73;;;0.70;;
40074;SDS011;26529;51.530;11.754;2022-10-16T14:13:49;1.48;;;0.75;;
40074;SDS011;26529;51.530;11.754;2022-10-16T14:16:17;1.98;;;0.60;;
40074;SDS011;26529;51.530;11.754;2022-10-16T14:18:55;0.77;;;0.40;;
40074;SDS011;26529;51.530;11.754;2022-10-16T14:21:23;0.73;;;0.50;;
40074;SDS011;26529;51.530;11.754;2022-10-16T14:23:49;1.27;;;0.50;;
40074;SDS011;26529;51.530;11.754;2022-10-16T14:26:17;1.02;;;0.63;;
40074;SDS011;26529;51.530;11.754;2022-10-16T14:28:45;1.15;;;0.57;;
40074;SDS011;26529;51.530;11.754;2022-10-16T14:33:54;0.43;;;0.30;;
40074;SDS011;26529;51.530;11.754;2022-10-16T14:36:19;2.25;;;0.60;;
40074;SDS011;26529;51.530;11.754;2022-10-16T14:39:03;1.15;;;0.82;;
40074;SDS011;26529;51.530;11.754;2022-10-16T14:41:31;2.63;;;0.60;;
40074;SDS011;26529;51.530;11.754;2022-10-16T14:44:04;0.50;;;0.40;;
40074;SDS011;26529;51.530;11.754;2022-10-16T14:46:34;0.60;;;0.50;;
40074;SDS011;26529;51.530;11.754;2022-10-16T14:51:33;1.55;;;0.50;;
40074;SDS011;26529;51.530;11.754;2022-10-16T14:53:59;1.58;;;0.52;;
40074;SDS011;26529;51.530;11.754;2022-10-16T14:56:25;1.73;;;0.55;;
40074;SDS011;26529;51.530;11.754;2022-10-16T14:58:59;0.93;;;0.60;;
40074;SDS011;26529;51.530;11.754;2022-10-16T15:01:25;1.85;;;0.43;;
40074;SDS011;26529;51.530;11.754;2022-10-16T15:03:51;1.55;;;0.50;;
40074;SDS011;26529;51.530;11.754;2022-10-16T15:06:19;2.42;;;1.00;;
40074;SDS011;26529;51.530;11.754;2022-10-16T15:08:45;2.15;;;0.57;;
40074;SDS011;26529;51.530;11.754;2022-10-16T15:11:11;1.60;;;0.70;;
40074;SDS011;26529;51.530;11.754;2022-10-16T15:13:39;3.80;;;1.08;;
40074;SDS011;26529;51.530;11.754;2022-10-16T15:16:04;5.38;;;1.10;;
40074;SDS011;26529;51.530;11.754;2022-10-16T15:18:35;3.25;;;0.90;;
40074;SDS011;26529;51.530;11.754;2022-10-16T15:21:01;11.35;;;1.45;;
40074;SDS011;26529;51.530;11.754;2022-10-16T15:23:26;6.50;;;1.27;;
40074;SDS011;26529;51.530;11.754;2022-10-16T15:25:53;4.22;;;0.90;;
40074;SDS011;26529;51.530;11.754;2022-10-16T15:28:20;8.52;;;1.50;;
40074;SDS011;26529;51.530;11.754;2022-10-16T15:30:48;6.53;;;1.30;;
40074;SDS011;26529;51.530;11.754;2022-10-16T15:33:16;5.88;;;1.10;;
40074;SDS011;26529;51.530;11.754;2022-10-16T15:35:47;3.75;;;1.08;;
40074;SDS011;26529;51.530;11.754;2022-10-16T15:38:13;7.63;;;1.17;;
40074;SDS011;26529;51.530;11.754;2022-10-16T15:40:40;12.90;;;1.45;;
40074;SDS011;26529;51.530;11.754;2022-10-16T15:43:06;3.33;;;1.00;;
40074;SDS011;26529;51.530;11.754;2022-10-16T15:45:32;4.10;;;1.10;;
40074;SDS011;26529;51.530;11.754;2022-10-16T15:47:57;8.32;;;0.98;;
40074;SDS011;26529;51.530;11.754;2022-10-16T15:50:23;5.63;;;1.15;;
40074;SDS011;26529;51.530;11.754;2022-10-16T15:52:49;2.85;;;0.60;;
40074;SDS011;26529;51.530;11.754;2022-10-16T15:55:16;5.20;;;1.00;;
40074;SDS011;26529;51.530;11.754;2022-10-16T15:57:43;5.45;;;1.05;;
40074;SDS011;26529;51.530;11.754;2022-10-16T16:00:10;4.22;;;1.33;;
40074;SDS011;26529;51.530;11.754;2022-10-16T16:02:38;4.70;;;0.90;;
40074;SDS011;26529;51.530;11.754;2022-10-16T16:05:05;4.95;;;0.93;;
40074;SDS011;26529;51.530;11.754;2022-10-16T16:07:36;3.88;;;0.90;;
40074;SDS011;26529;51.530;11.754;2022-10-16T16:10:04;3.78;;;0.60;;
40074;SDS011;26529;51.530;11.754;2022-10-16T16:12:31;6.80;;;1.42;;
40074;SDS011;26529;51.530;11.754;2022-10-16T16:14:57;3.47;;;0.70;;
40074;SDS011;26529;51.530;11.754;2022-10-16T16:17:23;5.40;;;1.00;;
40074;SDS011;26529;51.530;11.754;2022-10-16T16:19:49;9.25;;;1.30;;
40074;SDS011;26529;51.530;11.754;2022-10-16T16:22:15;8.07;;;0.93;;
40074;SDS011;26529;51.530;11.754;2022-10-16T16:24:41;4.28;;;1.35;;
40074;SDS011;26529;51.530;11.754;2022-10-16T16:27:06;5.22;;;1.08;;
40074;SDS011;26529;51.530;11.754;2022-10-16T16:29:32;2.75;;;1.02;;
40074;SDS011;26529;51.530;11.754;2022-10-16T16:31:58;3.47;;;1.08;;
40074;SDS011;26529;51.530;11.754;2022-10-16T16:34:25;5.18;;;1.42;;
40074;SDS011;26529;51.530;11.754;2022-10-16T16:36:55;3.92;;;0.95;;
40074;SDS011;26529;51.530;11.754;2022-10-16T16:39:21;2.83;;;1.05;;
40074;SDS011;26529;51.530;11.754;2022-10-16T16:41:47;6.13;;;1.63;;
40074;SDS011;26529;51.530;11.754;2022-10-16T16:44:13;3.47;;;1.17;;